Latest Weather Observations for Naracoorte

IDS60801

Issued at 5:01 am CDT Monday 27 March 2017 (issued every 30 minutes, with the page automatically refreshed every 10 minutes)

About weather observations | Map of weather stations | Latest weather observations for SA | Other Formats
Station Details ID: 026099 Name: NARACOORTE AERODROME Lat: -36.98 Lon: 140.73 Height: 49.72 m
Data from the previous 72 hours. | See also: Recent months at Naracoorte
Date/Time
CDT
Temp
°C
App
Temp
°C
Dew
Point
°C
Rel
Hum
%
Delta-T
°C
Wind Press
QNH
hPa
Press
MSL
hPa
Rain since
9am
mm
Dir  Spd
km/h
Gust
km/h
Spd
kts
Gust
kts
27/05:00am 27.4 21.1 13.4 42 8.3 NNE 39 52 21 28 1000.7 1000.6 0.0
27/04:38am 27.2 20.8 13.2 42 8.3 NNE 39 57 21 31 1000.9 1000.8 0.0
27/04:30am 26.9 20.9 13.3 43 8.0 NNE 37 50 20 27 1001.0 1000.9 0.0
27/04:00am 27.2 20.7 12.8 41 8.4 NNE 39 56 21 30 1001.4 1001.3 0.0
27/03:38am 27.2 21.0 12.8 41 8.4 NNE 37 56 20 30 1002.0 1001.9 0.0
27/03:30am 27.3 21.2 12.9 41 8.5 NNE 37 50 20 27 1002.1 1002.0 0.0
27/03:00am 26.7 21.5 13.4 43 7.9 NNE 33 48 18 26 1002.6 1002.5 0.0
27/02:30am 26.2 19.8 13.3 45 7.6 NE 39 50 21 27 1003.1 1003.0 0.0
27/02:00am 25.7 20.5 13.5 46 7.2 NE 33 46 18 25 1003.7 1003.6 0.0
27/01:30am 25.5 20.0 13.7 48 7.0 NNE 35 44 19 24 1004.3 1004.2 0.0
27/01:00am 25.2 20.1 13.7 49 6.8 NE 33 43 18 23 1005.2 1005.1 0.0
27/12:30am 24.9 20.0 13.8 50 6.6 NE 32 43 17 23 1005.6 1005.5 0.0
27/12:00am 24.7 19.7 13.9 51 6.4 NE 33 43 18 23 1006.0 1005.9 0.0
 
Date/Time
CDT
Temp
°C
App
Temp
°C
Dew
Point
°C
Rel
Hum
%
Delta-T
°C
Wind Press
QNH
hPa
Press
MSL
hPa
Rain since
9am
mm
Dir  Spd
km/h
Gust
km/h
Spd
kts
Gust
kts
26/11:30pm 24.3 19.9 14.1 53 6.0 NE 30 37 16 20 1006.7 1006.6 0.0
26/11:00pm 24.3 20.7 14.1 53 6.0 NE 26 35 14 19 1007.3 1007.2 0.0
26/10:30pm 24.8 20.8 14.0 51 6.4 NE 28 37 15 20 1007.8 1007.7 0.0
26/10:00pm 24.1 21.7 14.5 55 5.7 NE 20 24 11 13 1008.3 1008.2 0.0
26/09:30pm 24.3 23.2 15.2 57 5.5 NNE 15 20 8 11 1009.0 1008.9 0.0
26/09:00pm 24.3 23.8 16.0 60 5.1 NNE 13 19 7 10 1009.1 1009.0 0.0
26/08:30pm 23.7 24.0 17.0 66 4.1 NE 11 13 6 7 1009.0 1008.9 0.0
26/08:00pm 23.5 23.7 16.8 66 4.1 NE 11 13 6 7 1009.0 1008.9 0.0
26/07:30pm 23.3 23.8 16.6 66 4.1 NNE 9 11 5 6 1009.1 1009.0 0.0
26/07:00pm 24.5 25.4 16.5 61 4.9 N 7 9 4 5 1009.2 1009.1 0.0
26/06:30pm 25.0 25.4 16.2 58 5.4 N 9 13 5 7 1009.5 1009.4 0.0
26/06:00pm 25.5 25.0 15.8 55 5.9 N 13 17 7 9 1009.5 1009.4 0.0
26/05:30pm 26.1 25.9 15.8 53 6.3 N 11 15 6 8 1009.4 1009.3 0.0
26/05:00pm 26.1 27.0 16.1 54 6.1 N 6 11 3 6 1009.5 1009.4 0.0
26/04:30pm 26.5 26.2 15.5 50 6.7 N 11 15 6 8 1009.7 1009.6 0.0
26/04:00pm 26.4 25.6 15.1 49 6.8 N 13 17 7 9 1010.2 1010.1 0.0
26/03:30pm 26.4 25.5 14.8 49 7.0 N 13 22 7 12 1010.9 1010.8 0.0
26/03:00pm 26.2 25.1 14.3 48 7.1 N 13 19 7 10 1011.5 1011.4 0.0
26/02:30pm 26.4 26.0 15.1 49 6.8 NNW 11 17 6 9 1011.7 1011.6 0.0
26/02:00pm 25.5 25.5 15.2 53 6.2 NNW 9 13 5 7 1012.4 1012.3 0.0
26/01:30pm 24.5 24.7 15.7 58 5.3 NW 9 13 5 7 1012.9 1012.8 0.0
26/01:00pm 23.7 24.1 15.2 59 5.1 NW 7 13 4 7 1013.3 1013.2 0.0
26/12:30pm 22.5 23.5 15.4 64 4.2 NE 4 11 2 6 1013.5 1013.4 0.0
26/12:00pm 21.9 22.2 16.0 69 3.6 NE 9 13 5 7 1013.6 1013.5 0.0
26/11:30am 20.9 20.7 15.7 72 3.1 ENE 11 17 6 9 1014.1 1014.0 0.0
26/11:00am 19.9 19.5 16.2 79 2.2 NE 13 17 7 9 1014.2 1014.1 0.0
26/10:30am 18.9 18.0 15.8 82 1.8 E 15 19 8 10 1013.8 1013.7 0.0
26/10:00am 18.1 18.2 15.4 84 1.6 E 9 15 5 8 1014.4 1014.3 0.0
26/09:30am 17.6 18.2 15.4 87 1.3 ESE 6 13 3 7 1014.3 1014.2 0.0
26/09:00am 16.8 18.3 14.6 87 1.3 CALM 0 0 0 0 1014.8 1014.7 0.0
26/08:30am 16.4 17.9 14.6 89 1.0 CALM 0 6 0 3 1014.5 1014.4 0.0
26/08:00am 15.3 15.5 14.2 93 0.6 NNE 6 7 3 4 1014.6 1014.5 0.0
26/07:30am 14.7 13.4 13.6 93 0.6 SSE 13 17 7 9 1014.3 1014.2 0.0
26/07:00am 14.9 14.3 13.6 92 0.7 ESE 9 13 5 7 1013.9 1013.8 0.0
26/06:30am 15.3 14.1 14.0 92 0.7 SE 13 15 7 8 1013.7 1013.6 0.0
26/06:00am 14.8 14.4 14.0 95 0.5 SSE 9 13 5 7 1013.7 1013.6 0.0
26/05:30am 14.2 15.3 13.6 96 0.3 CALM 0 7 0 4 1013.4 1013.3 0.0
26/05:00am 13.8 14.8 13.2 96 0.3 CALM 0 0 0 0 1013.2 1013.1 0.0
26/04:30am 13.9 14.9 13.1 95 0.4 CALM 0 0 0 0 1013.5 1013.4 0.0
26/04:00am 14.2 15.3 13.6 96 0.3 CALM 0 0 0 0 1013.5 1013.4 0.0
26/03:30am 14.0 15.1 13.4 96 0.3 CALM 0 0 0 0 1013.8 1013.7 0.0
26/03:00am 14.1 15.1 13.3 95 0.4 CALM 0 0 0 0 1013.4 1013.3 0.0
26/02:30am 14.2 15.3 13.4 95 0.4 CALM 0 0 0 0 1014.1 1014.0 0.0
26/02:00am 14.4 15.5 13.4 94 0.6 CALM 0 0 0 0 1014.2 1014.1 0.0
26/01:30am 14.9 16.2 14.1 95 0.5 CALM 0 0 0 0 1014.1 1014.0 0.0
26/01:00am 14.4 15.5 13.4 94 0.6 CALM 0 0 0 0 1014.6 1014.5 0.0
26/12:30am 14.3 15.0 13.3 94 0.6 SE 2 6 1 3 1014.5 1014.4 0.0
26/12:00am 14.2 14.1 13.2 94 0.6 SE 6 7 3 4 1014.3 1014.2 0.0
 
Date/Time
CDT
Temp
°C
App
Temp
°C
Dew
Point
°C
Rel
Hum
%
Delta-T
°C
Wind Press
QNH
hPa
Press
MSL
hPa
Rain since
9am
mm
Dir  Spd
km/h
Gust
km/h
Spd
kts
Gust
kts
25/11:30pm 14.2 13.9 13.2 94 0.6 SE 7 9 4 5 1014.5 1014.4 0.0
25/11:00pm 15.3 15.5 14.2 93 0.6 S 6 7 3 4 1015.0 1014.9 0.0
25/10:30pm 15.5 15.6 14.0 91 0.8 SSE 6 7 3 4 1015.1 1015.0 0.0
25/10:00pm 15.6 16.1 14.1 91 0.9 SSE 4 9 2 5 1015.1 1015.0 0.0
25/09:30pm 16.3 16.1 14.7 90 0.9 S 9 11 5 6 1014.9 1014.8 0.0
25/09:00pm 16.9 15.6 14.7 87 1.3 SSW 15 19 8 10 1014.5 1014.4 0.0
25/08:30pm 17.3 16.0 14.9 86 1.4 SSW 15 19 8 10 1014.3 1014.2 0.0
25/08:00pm 18.2 17.1 15.3 83 1.7 SSW 15 20 8 11 1013.8 1013.7 0.0
25/07:30pm 19.1 18.1 15.6 80 2.1 SSW 15 17 8 9 1013.4 1013.3 0.0
25/07:00pm 20.3 18.7 15.9 76 2.6 SSW 19 24 10 13 1013.0 1012.9 0.0
25/06:30pm 22.0 20.3 16.3 70 3.5 SSW 20 28 11 15 1012.8 1012.7 0.0
25/06:00pm 23.1 20.7 16.4 66 4.1 SW 24 32 13 17 1012.4 1012.3 0.0
25/05:30pm 24.0 22.0 16.5 63 4.6 SW 22 28 12 15 1012.2 1012.1 0.0
25/05:00pm 24.7 23.0 18.2 67 4.1 SW 24 32 13 17 1012.0 1011.9 0.0
25/04:30pm 26.0 24.2 17.9 61 5.1 SW 24 30 13 16 1011.8 1011.7 0.0
25/04:00pm 26.1 25.1 18.0 61 5.1 WSW 20 32 11 17 1011.6 1011.5 0.0
25/03:30pm 26.9 25.8 17.7 57 5.8 SW 20 32 11 17 1011.4 1011.3 0.0
25/03:00pm 27.2 25.8 17.1 54 6.3 SW 20 28 11 15 1011.6 1011.5 0.0
25/02:30pm 26.1 24.5 16.4 55 6.0 WSW 20 26 11 14 1011.7 1011.6 0.0
25/02:00pm 27.4 26.6 17.0 53 6.5 SSW 17 20 9 11 1011.7 1011.6 0.0
25/01:30pm 27.1 26.4 16.4 52 6.6 WSW 15 22 8 12 1011.9 1011.8 0.0
25/01:00pm 26.8 26.5 16.4 53 6.4 SW 13 19 7 10 1012.0 1011.9 0.0
25/12:30pm 26.3 25.5 16.0 53 6.3 SW 15 20 8 11 1012.4 1012.3 0.0
25/12:00pm 25.9 25.6 16.5 56 5.8 SW 13 17 7 9 1012.5 1012.4 0.0
25/11:30am 24.7 24.3 15.3 56 5.7 SW 11 17 6 9 1012.6 1012.5 0.0
25/11:00am 24.7 24.7 16.2 59 5.2 WSW 11 17 6 9 1012.7 1012.6 0.0
25/10:30am 24.3 24.5 15.8 59 5.2 W 9 15 5 8 1012.7 1012.6 0.0
25/10:00am 23.7 23.0 15.5 60 4.9 W 13 17 7 9 1012.5 1012.4 0.0
25/09:30am 23.9 23.9 15.1 58 5.3 NW 9 11 5 6 1012.3 1012.2 0.0
25/09:00am 23.7 24.4 16.2 63 4.6 N 7 9 4 5 1012.1 1012.0 0.0
25/08:30am 21.9 22.6 16.0 69 3.6 N 7 9 4 5 1012.0 1011.9 0.0
25/08:00am 19.6 21.3 16.3 81 2.0 NNE 2 9 1 5 1011.8 1011.7 0.0
25/07:30am 19.4 21.5 16.2 82 1.9 CALM 0 0 0 0 1011.6 1011.5 0.0
25/07:00am 19.9 20.6 15.5 76 2.6 NNE 6 7 3 4 1011.1 1011.0 0.0
25/06:30am 20.1 20.7 15.7 76 2.6 WNW 7 9 4 5 1010.9 1010.8 0.0
25/06:00am 21.6 23.1 14.7 65 4.1 CALM 0 2 0 1 1010.6 1010.5 0.0
25/05:30am 21.7 22.2 14.1 62 4.4 NNE 4 6 2 3 1010.5 1010.4 0.0
25/05:00am 21.7 21.3 14.1 62 4.4 N 9 11 5 6 1010.4 1010.3 0.0
25/04:30am 21.9 21.5 14.0 61 4.6 N 9 13 5 7 1010.4 1010.3 0.0
25/04:00am 21.9 21.4 13.8 60 4.7 N 9 15 5 8 1010.3 1010.2 0.0
25/03:30am 22.3 19.9 13.9 59 4.9 NE 19 24 10 13 1010.1 1010.0 0.0
25/03:00am 22.3 19.6 13.6 58 5.1 NE 20 26 11 14 1010.1 1010.0 0.0
25/02:30am 22.6 19.9 13.4 56 5.3 NE 20 26 11 14 1010.5 1010.4 0.0
25/02:00am 22.7 20.2 13.5 56 5.3 NE 19 24 10 13 1010.7 1010.6 0.0
25/01:30am 22.8 20.3 13.6 56 5.4 NE 19 24 10 13 1011.0 1010.9 0.0
25/01:00am 22.7 20.2 13.5 56 5.3 NE 19 24 10 13 1011.2 1011.1 0.0
25/12:30am 22.8 20.4 13.8 57 5.3 ENE 19 24 10 13 1011.5 1011.4 0.0
25/12:00am 22.7 20.7 14.0 58 5.1 ENE 17 22 9 12 1011.8 1011.7 0.0
 
Date/Time
CDT
Temp
°C
App
Temp
°C
Dew
Point
°C
Rel
Hum
%
Delta-T
°C
Wind Press
QNH
hPa
Press
MSL
hPa
Rain since
9am
mm
Dir  Spd
km/h
Gust
km/h
Spd
kts
Gust
kts
24/11:30pm 22.4 20.6 14.5 61 4.7 NE 17 20 9 11 1012.3 1012.2 0.0
24/11:00pm 22.2 20.5 14.6 62 4.5 ENE 17 20 9 11 1012.5 1012.4 0.0
24/10:30pm 22.1 20.9 15.0 64 4.2 ENE 15 17 8 9 1012.9 1012.8 0.0
24/10:00pm 22.5 21.9 14.6 61 4.7 ENE 11 15 6 8 1013.1 1013.0 0.0
24/09:30pm 22.5 21.6 14.9 62 4.5 ENE 13 15 7 8 1013.5 1013.4 0.0
24/09:00pm 20.8 21.4 15.8 73 3.0 E 7 7 4 4 1013.9 1013.8 0.0
24/08:30pm 21.1 21.6 15.6 71 3.3 ESE 7 9 4 5 1013.5 1013.4 0.0
24/08:00pm 22.3 22.2 14.9 63 4.4 E 9 11 5 6 1013.1 1013.0 0.0
24/07:30pm 23.2 23.1 15.0 60 4.9 E 9 11 5 6 1013.0 1012.9 0.0
24/07:00pm 24.2 25.7 14.6 55 5.7 CALM 0 11 0 6 1013.2 1013.1 0.0
24/06:30pm 26.3 28.3 16.0 53 6.3 CALM 0 0 0 0 1013.3 1013.2 0.0
24/06:00pm 27.6 28.2 12.0 38 9.0 CALM 0 0 0 0 1013.5 1013.4 0.0
24/05:30pm 28.2 27.8 12.9 38 9.0 WSW 7 11 4 6 1013.5 1013.4 0.0
24/05:00pm 28.1 28.1 14.3 42 8.3 ENE 7 13 4 7 1013.4 1013.3 0.0
24/04:30pm 27.3 27.0 13.3 42 8.3 N 7 11 4 6 1013.5 1013.4 0.0
24/04:00pm 28.3 27.4 13.8 41 8.7 NE 11 20 6 11 1013.3 1013.2 0.0
24/03:30pm 27.6 27.1 14.9 45 7.7 NE 11 20 6 11 1013.8 1013.7 0.0
24/03:00pm 27.1 26.1 14.5 46 7.6 NE 13 24 7 13 1013.7 1013.6 0.0
24/02:30pm 27.4 26.3 15.4 48 7.3 N 15 20 8 11 1013.8 1013.7 0.0
24/02:00pm 27.2 25.1 14.6 46 7.6 NNE 19 28 10 15 1014.3 1014.2 0.0
24/01:30pm 25.7 24.1 16.0 55 5.9 NNE 19 22 10 12 1014.6 1014.5 0.0
24/01:00pm 26.4 24.3 16.3 53 6.2 NNE 22 28 12 15 1014.9 1014.8 0.0
24/12:30pm 24.3 22.5 15.5 58 5.3 NNE 19 24 10 13 1015.6 1015.5 0.0
24/12:00pm 24.8 23.2 16.0 58 5.4 N 19 26 10 14 1016.2 1016.1 0.0
24/11:30am 23.3 21.5 16.1 64 4.4 N 20 26 11 14 1016.4 1016.3 0.0
24/11:00am 21.2 19.6 15.1 68 3.6 NNE 17 24 9 13 1017.0 1016.8 0.0
24/10:30am 20.8 18.2 14.9 69 3.5 NE 22 30 12 16 1017.2 1017.1 0.0
24/10:00am 20.6 18.5 15.2 71 3.2 NE 20 28 11 15 1017.0 1016.8 0.0
24/09:30am 17.8 16.8 14.5 81 1.9 NE 13 22 7 12 1017.3 1017.2 0.0
24/09:00am 15.8 15.9 14.0 89 1.0 SE 6 7 3 4 1017.6 1017.5 0.0
24/08:30am 14.4 14.1 13.3 93 0.6 SSE 7 9 4 5 1017.6 1017.5 0.0
24/08:00am 13.5 13.2 12.7 95 0.4 SSE 6 7 3 4 1017.2 1017.1 0.0
24/07:30am 12.9 11.8 12.1 95 0.4 SSE 9 11 5 6 1017.1 1017.0 0.0
24/07:00am 13.1 11.7 12.2 94 0.5 S 11 13 6 7 1017.0 1016.8 0.0
24/06:30am 13.2 12.2 12.3 94 0.5 SSE 9 11 5 6 1016.5 1016.4 0.0
24/06:00am 13.5 12.6 12.6 94 0.5 SSE 9 11 5 6 1016.4 1016.3 0.0
24/05:30am 13.4 12.9 12.5 94 0.5 SSE 7 7 4 4 1016.2 1016.1 0.0

Other Formats:

Comma delimited format used in spreadsheet applications
http://www.bom.gov.au/fwo/IDS60801/IDS60801.94820.axf

JavaScript Object Notation format (JSON) in row-major order
http://www.bom.gov.au/fwo/IDS60801/IDS60801.94820.json